createdAt,value
2022-08-05T00:00:18.578Z,18.74
2022-08-05T00:02:51.358Z,18.73
2022-08-05T00:06:01.821Z,18.71
2022-08-05T00:08:32.901Z,18.68
2022-08-05T00:11:01.348Z,18.65
2022-08-05T00:13:39.478Z,18.65
2022-08-05T00:16:10.954Z,18.66
2022-08-05T00:18:42.204Z,18.66
2022-08-05T00:21:09.313Z,18.65
2022-08-05T00:23:45.700Z,18.63
2022-08-05T00:26:15.115Z,18.60
2022-08-05T00:28:43.756Z,18.58
2022-08-05T00:31:13.020Z,18.54
2022-08-05T00:34:55.795Z,18.52
2022-08-05T00:37:10.377Z,18.53
2022-08-05T00:39:14.514Z,18.51
2022-08-05T00:41:46.848Z,18.50
2022-08-05T00:44:18.999Z,18.50
2022-08-05T00:46:47.642Z,18.47
2022-08-05T00:49:21.086Z,18.45
2022-08-05T00:51:51.570Z,18.44
2022-08-05T00:54:19.422Z,18.41
2022-08-05T00:56:51.776Z,18.36
2022-08-05T00:59:18.746Z,18.34
2022-08-05T01:01:48.411Z,18.32
2022-08-05T01:04:15.986Z,18.29
2022-08-05T01:06:51.715Z,18.28
2022-08-05T01:09:19.944Z,18.24
2022-08-05T01:11:51.745Z,18.25
2022-08-05T01:14:27.721Z,18.24
2022-08-05T01:16:55.248Z,18.22
2022-08-05T01:19:30.192Z,18.16
2022-08-05T01:22:34.857Z,18.11
2022-08-05T01:25:39.603Z,18.08
2022-08-05T01:28:13.913Z,18.06
2022-08-05T01:30:55.102Z,18.03
2022-08-05T01:33:26.365Z,18.01
2022-08-05T01:35:57.427Z,18.01
2022-08-05T01:38:29.097Z,17.99
2022-08-05T01:41:01.392Z,17.97
2022-08-05T01:43:29.836Z,17.96
2022-08-05T01:45:57.930Z,17.94
2022-08-05T01:48:27.538Z,17.90
2022-08-05T01:50:56.912Z,17.91
2022-08-05T01:53:54.951Z,17.89
2022-08-05T01:58:11.648Z,17.85
2022-08-05T01:59:09.900Z,17.84
2022-08-05T02:01:40.361Z,17.83
2022-08-05T02:04:10.219Z,17.80
2022-08-05T02:06:39.004Z,17.80
2022-08-05T02:09:07.016Z,17.77
2022-08-05T02:11:48.120Z,17.76
2022-08-05T02:14:44.555Z,17.73
2022-08-05T02:18:32.173Z,17.71
2022-08-05T02:20:33.836Z,17.66
2022-08-05T02:23:10.856Z,17.62
2022-08-05T02:25:49.345Z,17.60
2022-08-05T02:28:28.889Z,17.58
2022-08-05T02:31:02.408Z,17.54
2022-08-05T02:33:38.758Z,17.51
2022-08-05T02:36:15.662Z,17.48
2022-08-05T02:38:53.492Z,17.45
2022-08-05T02:41:22.796Z,17.41
2022-08-05T02:44:02.626Z,17.40
2022-08-05T02:46:35.240Z,17.40
2022-08-05T02:49:02.722Z,17.38
2022-08-05T02:52:02.985Z,17.37
2022-08-05T02:54:35.794Z,17.37
2022-08-05T02:57:10.286Z,17.34
2022-08-05T02:59:54.356Z,17.36
2022-08-05T03:02:27.480Z,17.32
2022-08-05T03:04:57.527Z,17.28
2022-08-05T03:08:00.559Z,17.28
2022-08-05T03:10:15.684Z,17.28
2022-08-05T03:12:51.746Z,17.27
2022-08-05T03:15:20.203Z,17.26
2022-08-05T03:17:46.930Z,17.24
2022-08-05T03:20:13.972Z,17.24
2022-08-05T03:22:44.226Z,17.25
2022-08-05T03:25:32.741Z,17.24
2022-08-05T03:28:08.615Z,17.19
2022-08-05T03:30:36.824Z,17.16
2022-08-05T03:33:07.391Z,17.12
2022-08-05T03:35:41.130Z,17.10
2022-08-05T03:38:11.068Z,17.09
2022-08-05T03:40:45.114Z,17.08
2022-08-05T03:43:58.603Z,16.94
2022-08-05T03:46:01.860Z,16.92
2022-08-05T03:48:29.952Z,16.95
2022-08-05T03:52:37.709Z,16.90
2022-08-05T03:56:04.278Z,16.87
2022-08-05T03:56:47.332Z,16.84
2022-08-05T03:59:54.765Z,16.82
2022-08-05T04:02:38.271Z,16.75
2022-08-05T04:05:09.681Z,16.74
2022-08-05T04:07:53.081Z,16.76
2022-08-05T04:10:27.893Z,16.79
2022-08-05T04:12:55.533Z,16.76
2022-08-05T04:15:25.697Z,16.74
2022-08-05T04:17:59.882Z,16.74
2022-08-05T04:20:26.858Z,16.78
2022-08-05T04:22:53.506Z,16.77
2022-08-05T04:25:24.166Z,16.81
2022-08-05T04:28:11.450Z,16.82
2022-08-05T04:30:39.759Z,16.86
2022-08-05T04:33:06.515Z,16.89
2022-08-05T04:36:11.290Z,16.89
2022-08-05T04:38:21.152Z,16.92
2022-08-05T04:40:50.735Z,16.92
2022-08-05T04:43:18.256Z,16.94
2022-08-05T04:45:55.638Z,16.98
2022-08-05T04:48:28.145Z,17.00
2022-08-05T04:51:01.751Z,17.03
2022-08-05T04:53:36.701Z,17.07
2022-08-05T04:56:32.356Z,17.09
2022-08-05T04:58:54.706Z,17.13
2022-08-05T05:02:06.279Z,17.16
2022-08-05T05:04:08.421Z,17.19
2022-08-05T05:06:43.987Z,17.24
2022-08-05T05:09:17.627Z,17.28
2022-08-05T05:11:54.138Z,17.34
2022-08-05T05:14:27.895Z,17.37
2022-08-05T05:16:59.926Z,17.43
2022-08-05T05:19:36.433Z,17.48
2022-08-05T05:22:23.636Z,17.60
2022-08-05T05:24:50.863Z,18.04
2022-08-05T05:27:45.867Z,18.68
2022-08-05T05:30:31.482Z,19.18
2022-08-05T05:33:14.189Z,19.67
2022-08-05T05:35:47.435Z,20.15
2022-08-05T05:38:22.716Z,20.51
2022-08-05T05:40:54.424Z,20.88
2022-08-05T05:43:57.548Z,21.20
2022-08-05T05:46:15.875Z,21.62
2022-08-05T05:48:47.716Z,21.86
2022-08-05T05:51:27.910Z,22.18
2022-08-05T05:53:58.785Z,22.44
2022-08-05T05:56:34.803Z,22.52
2022-08-05T05:59:07.371Z,22.63
2022-08-05T06:01:37.772Z,22.76
2022-08-05T06:04:12.770Z,22.92
2022-08-05T06:06:41.569Z,23.18
2022-08-05T06:09:08.911Z,23.50
2022-08-05T06:11:43.597Z,23.74
2022-08-05T06:14:28.864Z,23.92
2022-08-05T06:16:56.979Z,24.26
2022-08-05T06:19:34.120Z,24.50
2022-08-05T06:22:07.691Z,24.66
2022-08-05T06:24:41.337Z,24.82
2022-08-05T06:27:17.172Z,25.10
2022-08-05T06:30:04.602Z,25.30
2022-08-05T06:32:43.824Z,25.34
2022-08-05T06:35:21.698Z,25.52
2022-08-05T06:38:04.261Z,25.55
2022-08-05T06:40:36.902Z,25.70
2022-08-05T06:43:57.506Z,25.76
2022-08-05T06:46:04.007Z,25.92
2022-08-05T06:48:53.526Z,25.85
2022-08-05T06:51:29.559Z,26.10
2022-08-05T06:54:01.717Z,26.29
2022-08-05T06:56:29.111Z,26.40
2022-08-05T06:58:55.906Z,26.36
2022-08-05T07:01:22.868Z,26.52
2022-08-05T07:03:49.764Z,26.76
2022-08-05T07:06:17.504Z,26.39
2022-08-05T07:08:54.507Z,26.74
2022-08-05T07:11:25.631Z,26.53
2022-08-05T07:14:20.706Z,26.93
2022-08-05T07:17:58.837Z,26.88
2022-08-05T07:20:31.655Z,26.75
2022-08-05T07:22:34.587Z,26.95
2022-08-05T07:25:22.717Z,26.64
2022-08-05T07:27:58.180Z,26.83
2022-08-05T07:30:33.332Z,26.99
2022-08-05T07:33:09.286Z,27.31
2022-08-05T07:36:03.999Z,27.44
2022-08-05T07:38:33.677Z,27.68
2022-08-05T07:42:06.830Z,27.99
2022-08-05T07:43:56.698Z,28.30
2022-08-05T07:46:28.910Z,28.14
2022-08-05T07:49:02.504Z,27.77
2022-08-05T07:51:36.930Z,28.04
2022-08-05T07:54:05.216Z,28.30
2022-08-05T07:57:02.875Z,28.51
2022-08-05T07:59:23.299Z,28.81
2022-08-05T08:02:07.337Z,28.80
2022-08-05T08:04:43.010Z,28.86
2022-08-05T08:07:12.306Z,28.97
2022-08-05T08:09:38.992Z,29.00
2022-08-05T08:12:16.943Z,29.21
2022-08-05T08:14:52.817Z,29.14
2022-08-05T08:17:21.481Z,29.25
2022-08-05T08:20:22.275Z,28.99
2022-08-05T08:22:35.842Z,29.37
2022-08-05T08:25:03.914Z,29.59
2022-08-05T08:27:47.588Z,29.89
2022-08-05T08:30:30.028Z,30.02
2022-08-05T08:33:04.375Z,30.03
2022-08-05T08:35:41.472Z,30.29
2022-08-05T08:38:18.920Z,30.16
2022-08-05T08:41:06.478Z,30.09
2022-08-05T08:45:23.609Z,30.32
2022-08-05T08:46:24.092Z,30.38
2022-08-05T08:49:08.100Z,30.56
2022-08-05T08:52:03.454Z,30.39
2022-08-05T08:54:29.289Z,30.36
2022-08-05T08:56:56.731Z,30.53
2022-08-05T08:59:27.650Z,30.81
2022-08-05T09:02:04.502Z,31.06
2022-08-05T09:04:58.467Z,31.22
2022-08-05T09:07:28.441Z,31.22
2022-08-05T09:09:56.061Z,31.38
2022-08-05T09:12:27.270Z,31.29
2022-08-05T09:15:04.862Z,31.38
2022-08-05T09:17:40.648Z,31.35
2022-08-05T09:20:11.515Z,31.41
2022-08-05T09:23:07.770Z,31.48
2022-08-05T09:26:02.418Z,31.32
2022-08-05T09:28:31.592Z,31.38
2022-08-05T09:31:22.199Z,31.76
2022-08-05T09:33:56.123Z,31.75
2022-08-05T09:36:27.416Z,31.89
2022-08-05T09:39:16.551Z,31.86
2022-08-05T09:41:58.698Z,32.01
2022-08-05T09:44:46.114Z,31.52
2022-08-05T09:47:36.432Z,31.80
2022-08-05T09:50:18.037Z,32.10
2022-08-05T09:53:01.033Z,32.30
2022-08-05T09:55:57.129Z,32.35
2022-08-05T09:58:15.739Z,32.36
2022-08-05T10:01:14.811Z,32.56
2022-08-05T10:04:00.424Z,32.54
2022-08-05T10:06:28.181Z,32.45
2022-08-05T10:08:55.778Z,32.38
2022-08-05T10:11:22.980Z,32.43
2022-08-05T10:13:54.626Z,32.49
2022-08-05T10:16:37.921Z,32.47
2022-08-05T10:19:10.129Z,32.44
2022-08-05T10:21:40.118Z,32.54
2022-08-05T10:24:10.910Z,32.45
2022-08-05T10:26:51.823Z,32.49
2022-08-05T10:29:23.982Z,32.62
2022-08-05T10:32:54.910Z,32.84
2022-08-05T10:35:01.049Z,32.86
2022-08-05T10:37:37.477Z,32.73
2022-08-05T10:40:35.728Z,32.89
2022-08-05T10:43:36.452Z,32.85
2022-08-05T10:46:08.749Z,32.81
2022-08-05T10:48:57.990Z,32.71
2022-08-05T10:51:57.699Z,32.88
2022-08-05T10:55:06.326Z,33.17
2022-08-05T10:57:34.237Z,33.20
2022-08-05T11:00:24.495Z,32.89
2022-08-05T11:03:23.448Z,32.79
2022-08-05T11:06:14.579Z,32.93
2022-08-05T11:09:18.609Z,32.90
2022-08-05T11:11:53.977Z,32.69
2022-08-05T11:15:01.397Z,32.65
2022-08-05T11:18:00.279Z,32.64
2022-08-05T11:20:37.403Z,32.88
2022-08-05T11:24:05.259Z,32.89
2022-08-05T11:26:38.123Z,33.04
2022-08-05T11:29:13.345Z,32.81
2022-08-05T11:31:58.204Z,33.01
2022-08-05T11:34:38.857Z,32.98
2022-08-05T11:38:26.423Z,32.89
2022-08-05T11:40:00.550Z,33.07
2022-08-05T11:42:37.898Z,32.81
2022-08-05T11:45:14.323Z,33.11
2022-08-05T11:47:55.143Z,33.17
2022-08-05T11:50:22.710Z,33.11
2022-08-05T11:52:53.184Z,33.14
2022-08-05T11:55:24.173Z,33.05
2022-08-05T11:58:10.146Z,32.94
2022-08-05T12:00:39.006Z,32.76
2022-08-05T12:03:31.374Z,32.69
2022-08-05T12:06:06.125Z,32.68
2022-08-05T12:08:52.491Z,32.50
2022-08-05T12:11:23.866Z,32.78
2022-08-05T12:13:58.691Z,33.13
2022-08-05T12:16:29.345Z,33.00
2022-08-05T12:18:56.146Z,32.98
2022-08-05T12:21:29.962Z,32.92
2022-08-05T12:24:11.963Z,32.76
2022-08-05T12:26:43.867Z,32.83
2022-08-05T12:29:16.230Z,32.53
2022-08-05T12:31:53.845Z,32.48
2022-08-05T12:34:30.127Z,32.58
2022-08-05T12:37:10.885Z,32.45
2022-08-05T12:39:48.496Z,32.53
2022-08-05T12:42:19.795Z,32.50
2022-08-05T12:44:47.631Z,32.48
2022-08-05T12:47:26.911Z,32.49
2022-08-05T12:50:03.016Z,32.54
2022-08-05T12:52:41.820Z,32.53
2022-08-05T12:55:25.680Z,32.48
2022-08-05T12:58:49.716Z,32.48
2022-08-05T13:02:00.355Z,32.24
2022-08-05T13:03:32.386Z,32.04
2022-08-05T13:06:00.863Z,32.14
2022-08-05T13:08:32.295Z,32.18
2022-08-05T13:11:02.421Z,32.31
2022-08-05T13:14:05.324Z,32.30
2022-08-05T13:16:20.355Z,32.44
2022-08-05T13:18:57.901Z,32.33
2022-08-05T13:21:28.160Z,32.53
2022-08-05T13:24:05.789Z,32.36
2022-08-05T13:26:35.433Z,32.33
2022-08-05T13:29:02.171Z,32.36
2022-08-05T13:32:02.827Z,32.24
2022-08-05T13:34:21.666Z,32.26
2022-08-05T13:36:53.948Z,32.33
2022-08-05T13:39:24.800Z,32.37
2022-08-05T13:42:14.434Z,32.38
2022-08-05T13:44:45.499Z,32.31
2022-08-05T13:47:36.168Z,32.24
2022-08-05T13:50:04.519Z,32.26
2022-08-05T13:52:35.473Z,32.30
2022-08-05T13:55:07.799Z,32.33
2022-08-05T13:57:48.742Z,32.40
2022-08-05T14:00:27.343Z,32.35
2022-08-05T14:02:57.544Z,32.25
2022-08-05T14:05:47.929Z,32.17
2022-08-05T14:08:20.809Z,32.13
2022-08-05T14:10:48.782Z,32.29
2022-08-05T14:13:15.779Z,32.18
2022-08-05T14:16:05.017Z,32.13
2022-08-05T14:18:29.623Z,31.99
2022-08-05T14:20:56.306Z,31.84
2022-08-05T14:23:26.016Z,31.79
2022-08-05T14:25:58.677Z,31.63
2022-08-05T14:28:28.146Z,31.49
2022-08-05T14:30:55.899Z,31.47
2022-08-05T14:33:23.917Z,31.46
2022-08-05T14:35:54.323Z,31.51
2022-08-05T14:38:32.216Z,31.55
2022-08-05T14:41:06.898Z,31.65
2022-08-05T14:43:57.704Z,31.61
2022-08-05T14:46:28.562Z,31.45
2022-08-05T14:49:06.906Z,31.44
2022-08-05T14:51:37.967Z,31.35
2022-08-05T14:54:26.062Z,31.28
2022-08-05T14:56:54.779Z,31.24
2022-08-05T14:59:21.874Z,31.19
2022-08-05T15:01:49.968Z,31.18
2022-08-05T15:04:20.551Z,31.22
2022-08-05T15:06:49.115Z,31.23
2022-08-05T15:09:16.243Z,31.24
2022-08-05T15:12:03.906Z,31.04
2022-08-05T15:14:35.097Z,30.89
2022-08-05T15:17:44.690Z,30.75
2022-08-05T15:19:56.987Z,30.61
2022-08-05T15:22:27.010Z,30.57
2022-08-05T15:24:56.224Z,30.43
2022-08-05T15:27:25.425Z,30.33
2022-08-05T15:29:54.224Z,30.24
2022-08-05T15:32:27.275Z,30.19
2022-08-05T15:34:56.208Z,30.07
2022-08-05T15:38:33.253Z,29.99
2022-08-05T15:40:59.540Z,29.95
2022-08-05T15:43:09.192Z,29.83
2022-08-05T15:45:45.687Z,29.75
2022-08-05T15:48:14.120Z,29.64
2022-08-05T15:50:43.748Z,29.56
2022-08-05T15:53:12.761Z,29.49
2022-08-05T15:56:04.172Z,29.34
2022-08-05T15:58:28.586Z,29.22
2022-08-05T16:01:11.643Z,29.17
2022-08-05T16:03:43.105Z,29.11
2022-08-05T16:06:11.530Z,29.01
2022-08-05T16:08:38.593Z,28.96
2022-08-05T16:11:05.407Z,28.93
2022-08-05T16:13:34.915Z,28.90
2022-08-05T16:16:03.521Z,28.81
2022-08-05T16:18:33.069Z,28.71
2022-08-05T16:21:04.173Z,28.60
2022-08-05T16:23:32.852Z,28.49
2022-08-05T16:26:18.954Z,28.34
2022-08-05T16:28:53.176Z,28.28
2022-08-05T16:31:21.528Z,28.18
2022-08-05T16:33:48.751Z,28.11
2022-08-05T16:36:20.496Z,28.00
2022-08-05T16:38:54.503Z,27.93
2022-08-05T16:42:15.105Z,27.93
2022-08-05T16:44:14.140Z,27.87
2022-08-05T16:46:55.899Z,27.81
2022-08-05T16:49:23.125Z,27.75
2022-08-05T16:51:51.396Z,27.69
2022-08-05T16:54:27.511Z,27.65
2022-08-05T16:56:58.737Z,27.54
2022-08-05T16:59:27.805Z,27.50
2022-08-05T17:01:57.531Z,27.48
2022-08-05T17:04:28.230Z,27.43
2022-08-05T17:07:00.217Z,27.36
2022-08-05T17:09:38.907Z,27.29
2022-08-05T17:12:17.605Z,27.22
2022-08-05T17:14:49.612Z,27.19
2022-08-05T17:17:16.519Z,27.15
2022-08-05T17:19:46.606Z,27.08
2022-08-05T17:22:25.459Z,26.99
2022-08-05T17:24:56.835Z,26.92
2022-08-05T17:27:26.088Z,26.87
2022-08-05T17:30:00.630Z,26.81
2022-08-05T17:32:29.527Z,26.77
2022-08-05T17:34:58.233Z,26.73
2022-08-05T17:37:39.539Z,26.66
2022-08-05T17:40:14.543Z,26.61
2022-08-05T17:42:49.670Z,26.55
2022-08-05T17:45:21.177Z,26.51
2022-08-05T17:47:54.490Z,26.46
2022-08-05T17:50:28.375Z,26.45
2022-08-05T17:52:59.211Z,26.39
2022-08-05T17:55:34.137Z,26.35
2022-08-05T17:58:06.975Z,26.31
2022-08-05T18:00:36.309Z,26.28
2022-08-05T18:03:08.018Z,26.27
2022-08-05T18:05:36.088Z,26.24
2022-08-05T18:08:03.495Z,26.17
2022-08-05T18:10:32.260Z,26.13
2022-08-05T18:13:00.357Z,26.10
2022-08-05T18:15:31.231Z,26.05
2022-08-05T18:18:05.770Z,25.97
2022-08-05T18:20:38.005Z,25.94
2022-08-05T18:23:08.966Z,25.91
2022-08-05T18:25:39.050Z,25.85
2022-08-05T18:28:06.879Z,25.80
2022-08-05T18:30:34.652Z,25.75
2022-08-05T18:33:01.886Z,25.69
2022-08-05T18:35:59.952Z,25.66
2022-08-05T18:38:19.058Z,25.60
2022-08-05T18:41:57.397Z,25.59
2022-08-05T18:43:42.776Z,25.54
2022-08-05T18:46:15.357Z,25.49
2022-08-05T18:48:42.184Z,25.45
2022-08-05T18:52:03.889Z,25.39
2022-08-05T18:54:15.130Z,25.33
2022-08-05T18:56:51.042Z,25.28
2022-08-05T18:59:44.082Z,25.20
2022-08-05T19:02:11.211Z,25.16
2022-08-05T19:05:01.335Z,25.10
2022-08-05T19:07:45.613Z,25.03
2022-08-05T19:10:14.797Z,24.99
2022-08-05T19:12:41.712Z,24.94
2022-08-05T19:15:25.142Z,24.91
2022-08-05T19:18:08.298Z,24.89
2022-08-05T19:20:36.818Z,24.86
2022-08-05T19:23:07.903Z,24.80
2022-08-05T19:25:38.167Z,24.75
2022-08-05T19:28:06.030Z,24.73
2022-08-05T19:30:32.721Z,24.71
2022-08-05T19:32:59.428Z,24.73
2022-08-05T19:35:26.104Z,24.73
2022-08-05T19:38:12.788Z,24.70
2022-08-05T19:40:43.831Z,24.69
2022-08-05T19:43:10.661Z,24.69
2022-08-05T19:45:57.373Z,24.61
2022-08-05T19:48:24.058Z,24.59
2022-08-05T19:50:52.417Z,24.55
2022-08-05T19:54:04.261Z,24.51
2022-08-05T19:56:14.452Z,24.48
2022-08-05T19:58:53.750Z,24.45
2022-08-05T20:01:28.194Z,24.37
2022-08-05T20:03:55.501Z,24.31
2022-08-05T20:06:23.386Z,24.27
2022-08-05T20:08:56.211Z,24.21
2022-08-05T20:11:24.303Z,24.13
2022-08-05T20:13:58.070Z,24.09
2022-08-05T20:16:25.808Z,24.01
2022-08-05T20:18:55.574Z,23.95
2022-08-05T20:21:22.989Z,23.90
2022-08-05T20:23:53.263Z,23.86
2022-08-05T20:26:26.897Z,23.78
2022-08-05T20:28:56.925Z,23.75
2022-08-05T20:31:28.584Z,23.66
2022-08-05T20:34:10.239Z,23.60
2022-08-05T20:36:37.016Z,23.55
2022-08-05T20:39:13.027Z,23.48
2022-08-05T20:41:43.124Z,23.43
2022-08-05T20:44:19.257Z,23.38
2022-08-05T20:46:57.341Z,23.35
2022-08-05T20:49:25.807Z,23.33
2022-08-05T20:51:54.211Z,23.33
2022-08-05T20:54:22.164Z,23.28
2022-08-05T20:56:49.177Z,23.26
2022-08-05T20:59:26.729Z,23.23
2022-08-05T21:01:57.187Z,23.16
2022-08-05T21:04:27.002Z,23.10
2022-08-05T21:06:54.523Z,23.05
2022-08-05T21:09:22.883Z,23.02
2022-08-05T21:12:07.479Z,22.96
2022-08-05T21:14:37.789Z,22.93
2022-08-05T21:17:05.403Z,22.89
2022-08-05T21:19:47.629Z,22.86
2022-08-05T21:22:21.730Z,22.83
2022-08-05T21:24:51.605Z,22.79
2022-08-05T21:27:25.232Z,22.76
2022-08-05T21:29:56.156Z,22.73
2022-08-05T21:32:27.587Z,22.68
2022-08-05T21:35:16.865Z,22.61
2022-08-05T21:37:47.150Z,22.56
2022-08-05T21:40:20.615Z,22.44
2022-08-05T21:42:47.614Z,22.39
2022-08-05T21:45:24.831Z,22.36
2022-08-05T21:48:06.571Z,22.32
2022-08-05T21:50:37.289Z,22.31
2022-08-05T21:53:17.730Z,22.25
2022-08-05T21:56:04.608Z,22.20
2022-08-05T21:58:32.477Z,22.15
2022-08-05T22:00:59.730Z,22.11
2022-08-05T22:03:52.580Z,22.07
2022-08-05T22:06:14.432Z,22.02
2022-08-05T22:08:42.831Z,21.97
2022-08-05T22:11:12.752Z,21.95
2022-08-05T22:14:32.329Z,21.94
2022-08-05T22:16:41.706Z,21.89
2022-08-05T22:20:00.389Z,21.84
2022-08-05T22:22:03.143Z,21.78
2022-08-05T22:24:52.054Z,21.76
2022-08-05T22:28:09.825Z,21.72
2022-08-05T22:30:24.957Z,21.68
2022-08-05T22:32:59.444Z,21.65
2022-08-05T22:35:26.415Z,21.63
2022-08-05T22:37:59.669Z,21.58
2022-08-05T22:40:27.171Z,21.56
2022-08-05T22:42:58.245Z,21.50
2022-08-05T22:45:26.474Z,21.47
2022-08-05T22:47:55.323Z,21.46
2022-08-05T22:50:26.543Z,21.44
2022-08-05T22:52:54.015Z,21.42
2022-08-05T22:55:22.691Z,21.37
2022-08-05T22:57:51.486Z,21.35
2022-08-05T23:00:21.113Z,21.32
2022-08-05T23:02:49.195Z,21.31
2022-08-05T23:05:16.779Z,21.31
2022-08-05T23:07:45.301Z,21.28
2022-08-05T23:10:20.137Z,21.27
2022-08-05T23:12:51.519Z,21.25
2022-08-05T23:15:22.336Z,21.18
2022-08-05T23:18:00.510Z,21.17
2022-08-05T23:20:37.316Z,21.15
2022-08-05T23:23:08.019Z,21.10
2022-08-05T23:25:51.257Z,21.05
2022-08-05T23:28:20.441Z,20.89
2022-08-05T23:30:53.174Z,20.84
2022-08-05T23:33:22.491Z,20.83
2022-08-05T23:36:10.150Z,20.76
2022-08-05T23:38:37.278Z,20.73
2022-08-05T23:41:04.038Z,20.71
2022-08-05T23:44:04.319Z,20.67
2022-08-05T23:46:19.590Z,20.62
2022-08-05T23:49:00.658Z,20.58
2022-08-05T23:51:53.647Z,20.61
2022-08-05T23:54:36.530Z,20.55
2022-08-05T23:57:06.724Z,20.55
